createdAt,value
2023-05-08T00:04:15.268Z,86.93
2023-05-08T00:09:19.838Z,86.96
2023-05-08T00:14:26.175Z,86.99
2023-05-08T00:19:29.538Z,87.21
2023-05-08T00:24:32.738Z,87.32
2023-05-08T00:29:36.104Z,87.62
2023-05-08T00:34:39.437Z,87.99
2023-05-08T00:39:43.057Z,87.38
2023-05-08T00:44:46.439Z,87.57
2023-05-08T00:49:49.933Z,87.17
2023-05-08T00:54:54.153Z,87.35
2023-05-08T00:59:59.586Z,87.13
2023-05-08T01:05:04.022Z,87.33
2023-05-08T01:10:08.278Z,87.43
2023-05-08T01:15:16.995Z,87.75
2023-05-08T01:20:45.467Z,87.99
2023-05-08T01:25:57.644Z,88.13
2023-05-08T01:31:39.302Z,88.24
2023-05-08T01:36:50.786Z,88.28
2023-05-08T01:42:19.416Z,88.45
2023-05-08T01:47:29.208Z,88.58
2023-05-08T01:52:47.536Z,88.70
2023-05-08T01:57:54.581Z,88.07
2023-05-08T02:02:59.375Z,87.89
2023-05-08T02:08:04.316Z,87.98
2023-05-08T02:13:10.379Z,87.67
2023-05-08T02:18:20.879Z,88.39
2023-05-08T02:23:26.839Z,88.33
2023-05-08T02:28:41.554Z,88.39
2023-05-08T02:33:45.859Z,88.54
2023-05-08T02:38:56.868Z,88.11
2023-05-08T02:44:00.382Z,88.39
2023-05-08T02:49:08.691Z,88.42
2023-05-08T02:54:23.157Z,88.50
2023-05-08T02:59:37.871Z,88.15
2023-05-08T03:04:51.625Z,87.99
2023-05-08T03:10:03.272Z,87.87
2023-05-08T03:15:17.513Z,87.43
2023-05-08T03:20:22.727Z,86.65
2023-05-08T03:25:27.864Z,87.20
2023-05-08T03:30:32.322Z,87.51
2023-05-08T03:35:40.268Z,87.86
2023-05-08T03:40:46.510Z,88.90
2023-05-08T03:45:51.544Z,89.58
2023-05-08T03:50:56.071Z,90.44
2023-05-08T03:56:03.176Z,90.64
2023-05-08T04:01:40.098Z,90.90
2023-05-08T04:06:52.695Z,90.81
2023-05-08T04:12:21.127Z,90.68
2023-05-08T04:18:09.136Z,90.57
2023-05-08T04:23:17.573Z,90.93
2023-05-08T04:28:22.714Z,91.16
2023-05-08T04:33:26.905Z,91.69
2023-05-08T04:38:30.579Z,91.85
2023-05-08T04:43:35.152Z,91.75
2023-05-08T04:48:38.827Z,92.49
2023-05-08T04:53:43.140Z,93.33
2023-05-08T04:58:46.797Z,93.31
2023-05-08T05:03:50.916Z,93.91
2023-05-08T05:08:55.099Z,92.28
2023-05-08T05:13:58.550Z,91.17
2023-05-08T05:19:02.055Z,88.34
2023-05-08T05:24:06.947Z,84.52
2023-05-08T05:29:10.357Z,82.83
2023-05-08T05:34:14.113Z,79.16
2023-05-08T05:39:17.648Z,76.77
2023-05-08T05:44:21.226Z,73.67
2023-05-08T05:49:24.747Z,69.39
2023-05-08T05:54:28.162Z,69.71
2023-05-08T05:59:32.171Z,68.71
2023-05-08T06:04:36.508Z,68.01
2023-05-08T06:09:44.927Z,67.32
2023-05-08T06:14:48.726Z,64.37
2023-05-08T06:19:56.099Z,62.12
2023-05-08T06:25:00.015Z,63.25
2023-05-08T06:30:04.869Z,62.15
2023-05-08T06:35:08.748Z,60.32
2023-05-08T06:40:13.055Z,60.75
2023-05-08T06:45:16.552Z,59.62
2023-05-08T06:50:20.427Z,59.01
2023-05-08T06:55:23.990Z,58.68
2023-05-08T07:00:27.452Z,56.41
2023-05-08T07:05:30.740Z,57.36
2023-05-08T07:10:34.462Z,56.11
2023-05-08T07:15:39.152Z,56.05
2023-05-08T07:20:42.519Z,55.84
2023-05-08T07:25:46.183Z,55.25
2023-05-08T07:30:49.838Z,54.12
2023-05-08T07:35:53.180Z,54.39
2023-05-08T07:41:01.625Z,55.68
2023-05-08T07:46:06.041Z,54.37
2023-05-08T07:51:11.378Z,54.25
2023-05-08T07:56:23.802Z,54.57
2023-05-08T08:01:27.495Z,53.93
2023-05-08T08:06:30.852Z,53.63
2023-05-08T08:11:34.162Z,53.92
2023-05-08T08:16:37.503Z,53.01
2023-05-08T08:21:44.107Z,52.57
2023-05-08T08:26:47.534Z,52.60
2023-05-08T08:31:50.844Z,52.39
2023-05-08T08:37:14.340Z,52.46
2023-05-08T08:42:17.849Z,50.72
2023-05-08T08:47:27.098Z,51.05
2023-05-08T08:52:51.499Z,49.65
2023-05-08T08:57:57.660Z,50.23
2023-05-08T09:03:01.257Z,49.76
2023-05-08T09:08:06.062Z,48.86
2023-05-08T09:13:09.418Z,46.93
2023-05-08T09:18:13.004Z,47.64
2023-05-08T09:23:17.627Z,46.55
2023-05-08T09:28:25.709Z,45.42
2023-05-08T09:33:30.872Z,47.37
2023-05-08T09:38:36.239Z,45.39
2023-05-08T09:43:39.720Z,46.64
2023-05-08T09:48:42.941Z,45.33
2023-05-08T09:53:52.334Z,45.69
2023-05-08T09:58:55.716Z,45.40
2023-05-08T10:03:59.908Z,45.65
2023-05-08T10:09:14.405Z,45.07
2023-05-08T10:14:18.625Z,44.58
2023-05-08T10:19:28.437Z,44.89
2023-05-08T10:24:33.924Z,45.80
2023-05-08T10:29:56.088Z,44.09
2023-05-08T10:35:00.782Z,43.26
2023-05-08T10:40:06.797Z,43.97
2023-05-08T10:45:22.621Z,44.30
2023-05-08T10:50:59.067Z,43.69
2023-05-08T10:56:02.987Z,43.40
2023-05-08T11:01:09.573Z,42.94
2023-05-08T11:06:15.385Z,43.44
2023-05-08T11:11:33.592Z,43.69
2023-05-08T11:16:56.785Z,41.19
2023-05-08T11:22:16.548Z,42.65
2023-05-08T11:27:51.338Z,42.23
2023-05-08T11:33:04.030Z,40.31
2023-05-08T11:38:38.664Z,41.20
2023-05-08T11:44:09.552Z,40.21
2023-05-08T11:49:16.989Z,41.01
2023-05-08T11:54:22.033Z,41.12
2023-05-08T11:59:26.106Z,39.83
2023-05-08T12:04:44.503Z,39.41
2023-05-08T12:09:48.294Z,40.38
2023-05-08T12:14:52.098Z,40.20
2023-05-08T12:19:56.639Z,40.23
2023-05-08T12:25:00.272Z,40.67
2023-05-08T12:30:09.466Z,38.68
2023-05-08T12:35:24.932Z,38.72
2023-05-08T12:40:45.435Z,38.18
2023-05-08T12:45:52.763Z,38.47
2023-05-08T12:51:02.438Z,38.27
2023-05-08T12:56:06.515Z,39.34
2023-05-08T13:01:13.543Z,39.64
2023-05-08T13:06:30.216Z,39.15
2023-05-08T13:11:34.463Z,38.76
2023-05-08T13:16:52.007Z,39.29
2023-05-08T13:21:55.561Z,38.92
2023-05-08T13:26:58.805Z,38.19
2023-05-08T13:32:02.162Z,37.54
2023-05-08T13:37:05.587Z,38.48
2023-05-08T13:42:08.854Z,38.74
2023-05-08T13:47:12.050Z,38.16
2023-05-08T13:52:15.316Z,38.23
2023-05-08T13:57:18.628Z,38.70
2023-05-08T14:02:22.278Z,37.82
2023-05-08T14:07:26.349Z,37.59
2023-05-08T14:12:29.853Z,38.02
2023-05-08T14:17:33.252Z,37.40
2023-05-08T14:22:36.690Z,37.17
2023-05-08T14:27:40.225Z,36.43
2023-05-08T14:32:43.623Z,35.81
2023-05-08T14:37:46.919Z,37.12
2023-05-08T14:42:50.264Z,36.95
2023-05-08T14:47:53.642Z,36.75
2023-05-08T14:52:57.185Z,36.71
2023-05-08T14:58:00.971Z,36.92
2023-05-08T15:03:04.305Z,36.75
2023-05-08T15:08:08.685Z,36.68
2023-05-08T15:13:12.003Z,36.97
2023-05-08T15:18:15.419Z,36.99
2023-05-08T15:23:21.136Z,36.93
2023-05-08T15:28:24.775Z,37.14
2023-05-08T15:33:28.148Z,37.70
2023-05-08T15:38:31.395Z,37.58
2023-05-08T15:43:34.620Z,37.78
2023-05-08T15:48:37.965Z,36.50
2023-05-08T15:53:41.515Z,36.75
2023-05-08T15:58:45.012Z,37.07
2023-05-08T16:03:48.454Z,36.96
2023-05-08T16:08:52.480Z,36.29
2023-05-08T16:13:55.962Z,36.76
2023-05-08T16:18:59.514Z,36.51
2023-05-08T16:24:08.731Z,36.89
2023-05-08T16:29:12.489Z,37.87
2023-05-08T16:34:16.257Z,38.04
2023-05-08T16:39:19.870Z,38.17
2023-05-08T16:44:23.287Z,39.22
2023-05-08T16:49:27.124Z,40.18
2023-05-08T16:54:30.971Z,40.16
2023-05-08T16:59:34.228Z,39.98
2023-05-08T17:04:38.016Z,38.89
2023-05-08T17:09:53.113Z,38.84
2023-05-08T17:14:57.135Z,38.33
2023-05-08T17:20:00.337Z,38.47
2023-05-08T17:25:03.824Z,38.42
2023-05-08T17:30:08.830Z,38.73
2023-05-08T17:35:12.251Z,39.44
2023-05-08T17:40:16.518Z,39.66
2023-05-08T17:45:45.125Z,40.63
2023-05-08T17:50:54.007Z,40.84
2023-05-08T17:55:57.917Z,42.65
2023-05-08T18:01:38.431Z,43.34
2023-05-08T18:07:33.335Z,45.98
2023-05-08T18:13:04.416Z,47.30
2023-05-08T18:18:07.940Z,48.46
2023-05-08T18:23:11.468Z,48.34
2023-05-08T18:28:14.770Z,49.71
2023-05-08T18:33:18.233Z,50.00
2023-05-08T18:38:37.061Z,50.38
2023-05-08T18:43:41.749Z,51.80
2023-05-08T18:48:45.185Z,52.77
2023-05-08T18:53:48.575Z,54.11
2023-05-08T18:58:55.191Z,54.34
2023-05-08T19:04:19.893Z,54.60
2023-05-08T19:09:26.054Z,56.22
2023-05-08T19:20:09.410Z,57.92
2023-05-08T19:25:37.260Z,58.15
2023-05-08T19:31:22.921Z,59.52
2023-05-08T19:36:38.838Z,59.33
2023-05-08T19:42:02.978Z,60.40
2023-05-08T19:47:06.991Z,60.95
2023-05-08T19:52:10.569Z,62.12
2023-05-08T19:57:14.036Z,62.06
2023-05-08T20:03:01.489Z,62.50
2023-05-08T20:14:46.329Z,63.85
2023-05-08T20:19:50.230Z,64.48
2023-05-08T20:24:53.878Z,65.01
2023-05-08T20:30:17.774Z,65.24
2023-05-08T20:42:02.775Z,66.19
2023-05-08T20:47:09.193Z,66.53
2023-05-08T20:52:12.635Z,66.81
2023-05-08T20:57:17.976Z,66.84
2023-05-08T21:02:21.426Z,67.28
2023-05-08T21:07:24.778Z,67.79
2023-05-08T21:12:28.045Z,68.16
2023-05-08T21:17:31.455Z,68.89
2023-05-08T21:22:34.924Z,69.67
2023-05-08T21:27:50.082Z,70.21
2023-05-08T21:32:53.613Z,70.25
2023-05-08T21:37:57.158Z,70.33
2023-05-08T21:43:01.386Z,70.60
2023-05-08T21:48:05.185Z,70.54
2023-05-08T21:53:08.546Z,71.01
2023-05-08T21:58:11.843Z,71.01
2023-05-08T22:03:15.415Z,71.42
2023-05-08T22:08:18.839Z,71.82
2023-05-08T22:13:22.433Z,72.21
2023-05-08T22:18:26.148Z,72.63
2023-05-08T22:23:29.370Z,72.92
2023-05-08T22:28:32.895Z,73.05
2023-05-08T22:33:36.951Z,73.22
2023-05-08T22:38:43.442Z,73.36
2023-05-08T22:43:46.990Z,74.03
2023-05-08T22:48:52.954Z,74.68
2023-05-08T22:53:57.058Z,75.07
2023-05-08T22:59:00.512Z,75.02
2023-05-08T23:04:03.964Z,75.23
2023-05-08T23:09:07.483Z,75.45
2023-05-08T23:14:10.889Z,75.35
2023-05-08T23:19:14.487Z,75.42
2023-05-08T23:24:19.264Z,75.67
2023-05-08T23:29:23.620Z,76.32
2023-05-08T23:34:29.465Z,77.05
2023-05-08T23:39:37.866Z,77.19
2023-05-08T23:45:01.391Z,77.23
2023-05-08T23:50:05.458Z,77.18
2023-05-08T23:55:12.173Z,77.70
